createdAt,value
2023-01-10T00:00:49.181Z,14.58
2023-01-10T00:01:46.543Z,14.71
2023-01-10T00:02:44.514Z,14.50
2023-01-10T00:03:41.920Z,14.20
2023-01-10T00:04:39.286Z,13.56
2023-01-10T00:05:37.878Z,14.72
2023-01-10T00:06:35.305Z,14.00
2023-01-10T00:07:32.682Z,14.75
2023-01-10T00:08:30.037Z,14.37
2023-01-10T00:09:27.415Z,14.03
2023-01-10T00:10:25.567Z,14.32
2023-01-10T00:11:42.374Z,14.10
2023-01-10T00:12:58.212Z,14.36
2023-01-10T00:13:56.467Z,13.90
2023-01-10T00:14:54.131Z,14.15
2023-01-10T00:15:56.063Z,14.70
2023-01-10T00:16:56.371Z,14.42
2023-01-10T00:17:53.801Z,13.96
2023-01-10T00:18:51.189Z,13.91
2023-01-10T00:19:48.826Z,13.97
2023-01-10T00:20:47.830Z,14.68
2023-01-10T00:21:45.127Z,14.08
2023-01-10T00:22:42.899Z,15.00
2023-01-10T00:23:41.393Z,14.57
2023-01-10T00:24:39.195Z,14.14
2023-01-10T00:25:36.670Z,14.36
2023-01-10T00:26:34.087Z,13.69
2023-01-10T00:27:31.704Z,13.44
2023-01-10T00:28:29.208Z,13.91
2023-01-10T00:29:35.342Z,14.92
2023-01-10T00:30:35.294Z,13.62
2023-01-10T00:31:32.780Z,13.41
2023-01-10T00:32:30.267Z,13.31
2023-01-10T00:33:28.737Z,13.52
2023-01-10T00:34:27.105Z,12.98
2023-01-10T00:35:24.548Z,13.32
2023-01-10T00:36:21.908Z,13.40
2023-01-10T00:37:19.440Z,12.97
2023-01-10T00:38:16.966Z,12.46
2023-01-10T00:39:15.385Z,12.70
2023-01-10T00:40:12.922Z,12.40
2023-01-10T00:41:30.245Z,12.49
2023-01-10T00:42:46.035Z,12.32
2023-01-10T00:43:58.473Z,11.97
2023-01-10T00:44:55.957Z,12.46
2023-01-10T00:45:53.768Z,12.20
2023-01-10T00:46:51.165Z,11.64
2023-01-10T00:47:48.980Z,12.43
2023-01-10T00:48:46.366Z,11.74
2023-01-10T00:49:43.776Z,11.04
2023-01-10T00:50:41.590Z,10.98
2023-01-10T00:51:39.001Z,11.38
2023-01-10T00:52:36.363Z,11.82
2023-01-10T00:53:33.801Z,11.57
2023-01-10T00:54:31.334Z,11.51
2023-01-10T00:55:28.694Z,11.50
2023-01-10T00:56:26.112Z,11.20
2023-01-10T00:57:23.506Z,11.43
2023-01-10T00:58:21.086Z,11.22
2023-01-10T00:59:18.406Z,11.13
2023-01-10T01:00:16.117Z,11.59
2023-01-10T01:01:13.543Z,11.55
2023-01-10T01:02:10.944Z,10.91
2023-01-10T01:03:09.034Z,11.33
2023-01-10T01:04:06.497Z,10.98
2023-01-10T01:05:04.621Z,11.92
2023-01-10T01:06:06.340Z,11.22
2023-01-10T01:07:03.701Z,10.71
2023-01-10T01:08:01.132Z,11.19
2023-01-10T01:08:58.547Z,11.18
2023-01-10T01:10:14.500Z,11.33
2023-01-10T01:11:11.880Z,10.82
2023-01-10T01:12:09.272Z,11.80
2023-01-10T01:13:11.301Z,11.56
2023-01-10T01:14:08.642Z,11.58
2023-01-10T01:15:06.335Z,11.99
2023-01-10T01:16:03.866Z,12.34
2023-01-10T01:17:01.238Z,12.01
2023-01-10T01:17:58.606Z,11.63
2023-01-10T01:18:56.054Z,11.76
2023-01-10T01:19:53.455Z,12.15
2023-01-10T01:20:58.007Z,12.09
2023-01-10T01:21:55.364Z,12.23
2023-01-10T01:22:52.735Z,11.81
2023-01-10T01:23:51.140Z,12.04
2023-01-10T01:24:48.504Z,12.91
2023-01-10T01:25:46.152Z,11.32
2023-01-10T01:26:43.515Z,11.28
2023-01-10T01:27:41.039Z,11.37
2023-01-10T01:28:38.380Z,11.33
2023-01-10T01:29:43.046Z,11.58
2023-01-10T01:30:41.001Z,11.68
2023-01-10T01:31:38.426Z,11.93
2023-01-10T01:32:35.947Z,11.77
2023-01-10T01:33:33.419Z,11.39
2023-01-10T01:34:30.742Z,11.15
2023-01-10T01:35:28.190Z,11.09
2023-01-10T01:36:25.672Z,11.68
2023-01-10T01:37:23.033Z,11.31
2023-01-10T01:38:20.364Z,12.01
2023-01-10T01:39:17.818Z,11.63
2023-01-10T01:40:16.744Z,11.97
2023-01-10T01:41:32.836Z,11.69
2023-01-10T01:42:32.232Z,10.79
2023-01-10T01:43:34.544Z,10.43
2023-01-10T01:44:33.787Z,10.70
2023-01-10T01:45:38.540Z,10.81
2023-01-10T01:46:39.276Z,10.94
2023-01-10T01:47:44.289Z,11.08
2023-01-10T01:48:43.980Z,10.79
2023-01-10T01:49:45.390Z,11.54
2023-01-10T01:50:42.751Z,11.27
2023-01-10T01:51:40.344Z,11.31
2023-01-10T01:52:37.778Z,12.01
2023-01-10T01:53:39.756Z,11.47
2023-01-10T01:54:37.849Z,11.48
2023-01-10T01:55:37.085Z,11.43
2023-01-10T01:56:56.538Z,12.43
2023-01-10T01:57:58.427Z,12.01
2023-01-10T01:59:14.514Z,12.09
2023-01-10T02:00:12.597Z,11.69
2023-01-10T02:01:12.051Z,12.11
2023-01-10T02:02:16.719Z,11.91
2023-01-10T02:03:15.236Z,11.77
2023-01-10T02:04:19.093Z,11.11
2023-01-10T02:05:18.694Z,11.69
2023-01-10T02:06:19.003Z,11.45
2023-01-10T02:07:17.575Z,11.38
2023-01-10T02:08:14.987Z,11.63
2023-01-10T02:09:18.431Z,11.38
2023-01-10T02:10:18.612Z,11.01
2023-01-10T02:11:16.314Z,11.33
2023-01-10T02:12:15.006Z,10.85
2023-01-10T02:13:14.951Z,11.05
2023-01-10T02:14:14.674Z,11.26
2023-01-10T02:15:13.139Z,11.41
2023-01-10T02:16:10.579Z,11.31
2023-01-10T02:17:09.830Z,11.84
2023-01-10T02:18:08.042Z,11.41
2023-01-10T02:19:10.474Z,11.30
2023-01-10T02:20:11.252Z,11.65
2023-01-10T02:21:28.094Z,11.89
2023-01-10T02:22:28.421Z,11.91
2023-01-10T02:23:40.904Z,11.42
2023-01-10T02:24:38.303Z,11.81
2023-01-10T02:25:54.132Z,11.75
2023-01-10T02:26:51.457Z,12.61
2023-01-10T02:28:07.431Z,11.98
2023-01-10T02:29:10.716Z,12.02
2023-01-10T02:30:08.172Z,11.63
2023-01-10T02:31:08.325Z,12.22
2023-01-10T02:32:08.607Z,12.29
2023-01-10T02:33:14.294Z,12.20
2023-01-10T02:34:29.712Z,12.53
2023-01-10T02:35:47.390Z,12.73
2023-01-10T02:36:55.757Z,12.48
2023-01-10T02:37:53.396Z,11.68
2023-01-10T02:39:11.237Z,11.66
2023-01-10T02:40:19.946Z,11.68
2023-01-10T02:41:31.205Z,11.23
2023-01-10T02:42:48.789Z,10.75
2023-01-10T02:43:51.637Z,9.60
2023-01-10T02:44:49.006Z,10.46
2023-01-10T02:46:00.405Z,11.27
2023-01-10T02:46:58.035Z,10.85
2023-01-10T02:47:56.534Z,10.72
2023-01-10T02:48:54.995Z,10.72
2023-01-10T02:49:52.485Z,10.26
2023-01-10T02:50:53.889Z,10.88
2023-01-10T02:51:51.267Z,11.18
2023-01-10T02:52:48.692Z,10.78
2023-01-10T02:53:54.171Z,11.74
2023-01-10T02:54:55.993Z,11.40
2023-01-10T02:55:53.282Z,12.16
2023-01-10T02:57:05.685Z,12.93
2023-01-10T02:58:22.032Z,12.99
2023-01-10T02:59:28.317Z,12.93
2023-01-10T03:00:26.144Z,13.35
2023-01-10T03:01:42.332Z,13.80
2023-01-10T03:02:39.935Z,13.74
2023-01-10T03:04:01.967Z,13.48
2023-01-10T03:05:18.287Z,13.96
2023-01-10T03:06:22.494Z,15.07
2023-01-10T03:07:31.342Z,14.44
2023-01-10T03:08:34.606Z,14.37
2023-01-10T03:09:34.246Z,14.24
2023-01-10T03:10:37.425Z,14.54
2023-01-10T03:11:41.405Z,13.84
2023-01-10T03:12:38.919Z,13.77
2023-01-10T03:13:57.982Z,13.50
2023-01-10T03:14:57.878Z,14.43
2023-01-10T03:15:57.757Z,14.88
2023-01-10T03:17:04.857Z,14.56
2023-01-10T03:18:05.859Z,14.00
2023-01-10T03:19:03.245Z,14.17
2023-01-10T03:20:05.038Z,14.36
2023-01-10T03:21:05.777Z,13.75
2023-01-10T03:22:05.161Z,13.93
2023-01-10T03:23:06.381Z,12.98
2023-01-10T03:24:13.274Z,13.93
2023-01-10T03:25:14.255Z,14.15
2023-01-10T03:26:13.164Z,13.83
2023-01-10T03:27:10.778Z,14.32
2023-01-10T03:28:15.736Z,14.62
2023-01-10T03:29:17.301Z,15.00
2023-01-10T03:30:31.667Z,14.62
2023-01-10T03:31:35.206Z,15.15
2023-01-10T03:32:32.956Z,14.96
2023-01-10T03:33:33.065Z,14.98
2023-01-10T03:34:32.180Z,15.30
2023-01-10T03:35:38.129Z,15.11
2023-01-10T03:36:47.622Z,15.98
2023-01-10T03:37:55.551Z,16.27
2023-01-10T03:38:57.726Z,15.91
2023-01-10T03:40:08.436Z,15.84
2023-01-10T03:41:14.557Z,15.85
2023-01-10T03:42:17.975Z,14.76
2023-01-10T03:43:42.411Z,15.42
2023-01-10T03:44:53.932Z,16.20
2023-01-10T03:45:55.732Z,16.32
2023-01-10T03:47:02.365Z,15.58
2023-01-10T03:48:04.187Z,15.76
2023-01-10T03:49:04.425Z,16.78
2023-01-10T03:50:06.673Z,16.49
2023-01-10T03:51:06.470Z,16.82
2023-01-10T03:52:05.974Z,15.76
2023-01-10T03:53:04.121Z,15.22
2023-01-10T03:54:02.510Z,15.35
2023-01-10T03:55:00.657Z,15.67
2023-01-10T03:55:58.334Z,16.25
2023-01-10T03:56:55.696Z,15.58
2023-01-10T03:57:53.096Z,15.61
2023-01-10T03:58:50.468Z,14.70
2023-01-10T03:59:50.893Z,15.61
2023-01-10T04:00:49.263Z,14.61
2023-01-10T04:01:47.019Z,15.30
2023-01-10T04:02:44.572Z,15.51
2023-01-10T04:03:42.217Z,15.77
2023-01-10T04:04:39.708Z,15.78
2023-01-10T04:05:37.193Z,15.59
2023-01-10T04:06:34.813Z,15.71
2023-01-10T04:07:32.248Z,15.61
2023-01-10T04:08:29.603Z,15.92
2023-01-10T04:09:27.092Z,15.74
2023-01-10T04:10:27.120Z,16.16
2023-01-10T04:11:24.551Z,15.98
2023-01-10T04:12:21.948Z,16.02
2023-01-10T04:13:19.348Z,15.70
2023-01-10T04:14:16.764Z,15.86
2023-01-10T04:15:14.227Z,16.17
2023-01-10T04:16:11.993Z,16.36
2023-01-10T04:17:09.407Z,16.15
2023-01-10T04:18:06.873Z,14.81
2023-01-10T04:19:04.320Z,15.03
2023-01-10T04:20:01.751Z,15.56
2023-01-10T04:20:59.132Z,16.08
2023-01-10T04:21:56.555Z,16.11
2023-01-10T04:22:54.821Z,15.51
2023-01-10T04:23:52.500Z,14.68
2023-01-10T04:24:53.082Z,14.62
2023-01-10T04:25:50.494Z,15.28
2023-01-10T04:26:47.924Z,15.04
2023-01-10T04:27:45.272Z,15.54
2023-01-10T04:28:42.711Z,15.47
2023-01-10T04:29:40.057Z,15.84
2023-01-10T04:30:37.459Z,15.08
2023-01-10T04:31:34.894Z,14.83
2023-01-10T04:32:32.364Z,15.54
2023-01-10T04:33:29.881Z,15.16
2023-01-10T04:34:27.269Z,15.97
2023-01-10T04:35:25.119Z,15.23
2023-01-10T04:36:22.595Z,15.53
2023-01-10T04:37:20.065Z,16.13
2023-01-10T04:38:18.290Z,15.64
2023-01-10T04:39:15.865Z,15.77
2023-01-10T04:40:14.039Z,16.11
2023-01-10T04:41:11.365Z,16.28
2023-01-10T04:42:08.689Z,15.58
2023-01-10T04:43:06.019Z,16.05
2023-01-10T04:44:03.736Z,16.40
2023-01-10T04:45:01.209Z,16.67
2023-01-10T04:45:58.622Z,15.72
2023-01-10T04:46:56.289Z,16.38
2023-01-10T04:47:56.233Z,17.05
2023-01-10T04:48:53.636Z,17.06
2023-01-10T04:49:50.971Z,17.40
2023-01-10T04:50:54.204Z,16.82
2023-01-10T04:51:51.641Z,16.99
2023-01-10T04:52:49.033Z,17.96
2023-01-10T04:53:46.436Z,17.77
2023-01-10T04:54:43.909Z,16.89
2023-01-10T04:55:41.246Z,16.37
2023-01-10T04:56:38.684Z,15.94
2023-01-10T04:57:36.088Z,15.86
2023-01-10T04:58:34.886Z,17.26
2023-01-10T04:59:32.513Z,17.26
2023-01-10T05:00:30.482Z,17.10
2023-01-10T05:01:27.894Z,17.63
2023-01-10T05:02:25.384Z,16.88
2023-01-10T05:03:22.803Z,17.30
2023-01-10T05:04:21.014Z,17.37
2023-01-10T05:05:18.467Z,17.82
2023-01-10T05:06:16.150Z,17.72
2023-01-10T05:07:13.586Z,17.07
2023-01-10T05:08:10.934Z,16.34
2023-01-10T05:09:08.621Z,18.07
2023-01-10T05:10:07.239Z,17.08
2023-01-10T05:11:04.710Z,17.49
2023-01-10T05:12:02.315Z,16.80
2023-01-10T05:12:59.740Z,17.41
2023-01-10T05:13:57.462Z,16.29
2023-01-10T05:14:54.845Z,17.14
2023-01-10T05:15:56.297Z,16.89
2023-01-10T05:16:53.778Z,16.82
2023-01-10T05:17:57.433Z,17.08
2023-01-10T05:18:54.962Z,17.59
2023-01-10T05:19:52.599Z,16.63
2023-01-10T05:20:50.228Z,17.02
2023-01-10T05:21:47.700Z,17.83
2023-01-10T05:22:45.896Z,17.91
2023-01-10T05:23:43.460Z,17.14
2023-01-10T05:24:43.074Z,17.81
2023-01-10T05:25:40.504Z,18.02
2023-01-10T05:26:37.909Z,17.62
2023-01-10T05:27:35.276Z,17.30
2023-01-10T05:28:32.675Z,18.50
2023-01-10T05:29:30.087Z,17.97
2023-01-10T05:30:27.593Z,18.79
2023-01-10T05:31:25.128Z,18.07
2023-01-10T05:32:22.855Z,18.78
2023-01-10T05:33:20.201Z,18.70
2023-01-10T05:34:17.644Z,18.50
2023-01-10T05:35:15.124Z,18.07
2023-01-10T05:36:12.574Z,19.35
2023-01-10T05:37:09.982Z,19.46
2023-01-10T05:38:07.369Z,19.16
2023-01-10T05:39:04.733Z,18.72
2023-01-10T05:40:02.132Z,18.53
2023-01-10T05:40:59.845Z,19.07
2023-01-10T05:41:57.225Z,18.73
2023-01-10T05:42:54.584Z,18.58
2023-01-10T05:43:53.014Z,19.43
2023-01-10T05:44:50.375Z,18.95
2023-01-10T05:45:47.829Z,18.86
2023-01-10T05:46:45.171Z,18.93
2023-01-10T05:47:42.559Z,19.42
2023-01-10T05:48:39.967Z,18.38
2023-01-10T05:49:38.230Z,18.04
2023-01-10T05:50:35.546Z,18.84
2023-01-10T05:51:33.324Z,19.08
2023-01-10T05:52:30.684Z,19.25
2023-01-10T05:53:28.033Z,18.86
2023-01-10T05:54:25.405Z,18.66
2023-01-10T05:55:22.861Z,19.62
2023-01-10T05:56:20.226Z,18.87
2023-01-10T05:57:19.196Z,19.77
2023-01-10T05:58:16.558Z,19.08
2023-01-10T05:59:27.218Z,19.42
2023-01-10T06:00:25.506Z,19.19
2023-01-10T06:01:22.928Z,19.73
2023-01-10T06:02:20.614Z,19.77
2023-01-10T06:03:18.525Z,19.29
2023-01-10T06:04:16.045Z,20.20
2023-01-10T06:05:13.666Z,19.37
2023-01-10T06:06:11.091Z,20.01
2023-01-10T06:07:08.476Z,19.28
2023-01-10T06:08:05.866Z,19.29
2023-01-10T06:09:03.286Z,19.51
2023-01-10T06:10:00.637Z,20.05
2023-01-10T06:10:58.062Z,19.83
2023-01-10T06:11:55.416Z,19.64
2023-01-10T06:12:53.294Z,20.29
2023-01-10T06:13:53.935Z,18.64
2023-01-10T06:14:51.415Z,19.39
2023-01-10T06:15:48.856Z,19.30
2023-01-10T06:16:46.651Z,19.51
2023-01-10T06:17:45.612Z,19.35
2023-01-10T06:18:43.036Z,19.14
2023-01-10T06:19:40.332Z,19.66
2023-01-10T06:20:37.664Z,19.02
2023-01-10T06:21:35.057Z,19.42
2023-01-10T06:22:32.407Z,20.13
2023-01-10T06:23:30.693Z,20.27
2023-01-10T06:24:28.132Z,19.65
2023-01-10T06:25:25.520Z,19.51
2023-01-10T06:26:23.014Z,19.23
2023-01-10T06:27:20.425Z,19.41
2023-01-10T06:28:18.419Z,19.66
2023-01-10T06:29:15.817Z,19.10
2023-01-10T06:30:13.982Z,18.42
2023-01-10T06:31:11.430Z,19.92
2023-01-10T06:32:08.847Z,19.38
2023-01-10T06:33:07.688Z,19.94
2023-01-10T06:34:05.056Z,18.58
2023-01-10T06:35:02.710Z,18.87
2023-01-10T06:36:00.061Z,19.50
2023-01-10T06:36:58.441Z,19.52
2023-01-10T06:37:55.759Z,19.81
2023-01-10T06:38:53.140Z,19.82
2023-01-10T06:39:51.385Z,18.95
2023-01-10T06:40:49.223Z,18.91
2023-01-10T06:41:46.569Z,19.43
2023-01-10T06:42:43.969Z,19.48
2023-01-10T06:43:45.819Z,18.83
2023-01-10T06:44:43.209Z,19.36
2023-01-10T06:45:40.693Z,18.83
2023-01-10T06:46:38.097Z,18.72
2023-01-10T06:47:35.569Z,19.29
2023-01-10T06:48:32.959Z,18.54
2023-01-10T06:49:30.559Z,18.93
2023-01-10T06:50:28.045Z,18.78
2023-01-10T06:51:25.764Z,18.68
2023-01-10T06:52:23.124Z,18.95
2023-01-10T06:53:20.577Z,18.59
2023-01-10T06:54:18.160Z,18.64
2023-01-10T06:55:15.557Z,19.03
2023-01-10T06:56:12.958Z,18.46
2023-01-10T06:57:10.268Z,19.18
2023-01-10T06:58:07.611Z,18.95
2023-01-10T06:59:07.784Z,18.72
2023-01-10T07:00:07.363Z,19.53
2023-01-10T07:01:06.322Z,19.27
2023-01-10T07:02:03.855Z,19.67
2023-01-10T07:03:02.608Z,20.05
2023-01-10T07:04:00.065Z,18.86
2023-01-10T07:04:57.523Z,19.34
2023-01-10T07:05:54.891Z,19.51
2023-01-10T07:06:52.891Z,18.87
2023-01-10T07:07:50.413Z,19.15
2023-01-10T07:08:48.132Z,19.13
2023-01-10T07:09:46.371Z,19.13
2023-01-10T07:10:44.568Z,18.69
2023-01-10T07:11:41.849Z,19.12
2023-01-10T07:12:39.196Z,19.00
2023-01-10T07:13:36.559Z,19.54
2023-01-10T07:14:34.138Z,18.58
2023-01-10T07:15:31.550Z,18.94
2023-01-10T07:16:29.483Z,18.15
2023-01-10T07:17:26.939Z,18.43
2023-01-10T07:18:24.291Z,19.08
2023-01-10T07:19:21.664Z,17.73
2023-01-10T07:20:19.636Z,18.41
2023-01-10T07:21:18.284Z,17.89
2023-01-10T07:22:15.709Z,18.12
2023-01-10T07:23:13.105Z,18.89
2023-01-10T07:24:10.492Z,19.71
2023-01-10T07:25:08.062Z,18.46
2023-01-10T07:26:06.838Z,19.20
2023-01-10T07:27:04.194Z,18.65
2023-01-10T07:28:01.618Z,19.66
2023-01-10T07:28:58.936Z,19.15
2023-01-10T07:29:56.344Z,17.92
2023-01-10T07:30:53.930Z,17.91
2023-01-10T07:31:51.878Z,18.17
2023-01-10T07:32:58.827Z,19.23
2023-01-10T07:33:56.266Z,19.20
2023-01-10T07:34:53.712Z,18.80
2023-01-10T07:35:51.087Z,18.35
2023-01-10T07:36:48.760Z,18.91
2023-01-10T07:37:46.144Z,19.19
2023-01-10T07:38:43.540Z,19.33
2023-01-10T07:39:42.355Z,20.48
2023-01-10T07:40:39.792Z,19.43
2023-01-10T07:41:37.254Z,18.35
2023-01-10T07:42:34.630Z,19.38
2023-01-10T07:43:32.534Z,19.33
2023-01-10T07:44:29.853Z,19.31
2023-01-10T07:45:28.169Z,18.60
2023-01-10T07:46:26.635Z,19.24
2023-01-10T07:47:24.139Z,20.51
2023-01-10T07:48:21.619Z,19.85
2023-01-10T07:49:19.003Z,19.25
2023-01-10T07:50:18.099Z,18.43
2023-01-10T07:51:15.624Z,19.78
2023-01-10T07:52:13.002Z,19.75
2023-01-10T07:53:10.426Z,19.62
2023-01-10T07:54:07.749Z,18.37
2023-01-10T07:55:05.796Z,19.18
2023-01-10T07:56:04.168Z,19.66
2023-01-10T07:57:01.714Z,19.40
2023-01-10T07:57:59.023Z,18.94
2023-01-10T07:58:56.396Z,19.52
2023-01-10T07:59:53.788Z,19.20
2023-01-10T08:00:53.750Z,18.96
2023-01-10T08:01:51.247Z,19.95
2023-01-10T08:02:52.929Z,19.81
2023-01-10T08:03:50.504Z,18.98
2023-01-10T08:04:47.919Z,19.08
2023-01-10T08:05:45.415Z,18.69
2023-01-10T08:06:42.806Z,18.22
2023-01-10T08:07:40.218Z,19.15
2023-01-10T08:08:38.654Z,18.15
2023-01-10T08:09:36.012Z,17.95
2023-01-10T08:10:34.807Z,18.21
2023-01-10T08:11:32.177Z,18.59
2023-01-10T08:12:29.530Z,17.84
2023-01-10T08:13:27.283Z,18.36
2023-01-10T08:14:24.705Z,17.90
2023-01-10T08:15:22.256Z,18.58
2023-01-10T08:16:20.980Z,17.90
2023-01-10T08:17:18.896Z,18.38
2023-01-10T08:18:16.713Z,18.87
2023-01-10T08:19:16.914Z,18.36
2023-01-10T08:20:14.337Z,18.39
2023-01-10T08:21:11.724Z,18.18
2023-01-10T08:22:09.473Z,18.38
2023-01-10T08:23:06.917Z,18.70
2023-01-10T08:24:04.448Z,17.60
2023-01-10T08:25:01.849Z,17.94
2023-01-10T08:25:59.698Z,17.55
2023-01-10T08:27:00.828Z,18.33
2023-01-10T08:27:58.223Z,17.25
2023-01-10T08:28:55.548Z,17.53
2023-01-10T08:29:52.880Z,17.32
2023-01-10T08:30:55.475Z,17.50
2023-01-10T08:31:52.996Z,17.28
2023-01-10T08:32:52.287Z,16.62
2023-01-10T08:33:49.710Z,17.20
2023-01-10T08:34:47.148Z,17.21
2023-01-10T08:35:44.585Z,16.92
2023-01-10T08:36:41.953Z,17.12
2023-01-10T08:37:39.359Z,17.03
2023-01-10T08:38:36.753Z,17.63
2023-01-10T08:39:35.453Z,16.87
2023-01-10T08:40:32.995Z,16.94
2023-01-10T08:41:31.381Z,17.49
2023-01-10T08:42:28.787Z,16.24
2023-01-10T08:43:26.187Z,16.41
2023-01-10T08:44:23.930Z,16.18
2023-01-10T08:45:21.303Z,17.33
2023-01-10T08:46:20.277Z,16.86
2023-01-10T08:47:18.044Z,16.98
2023-01-10T08:48:15.714Z,15.94
2023-01-10T08:49:13.102Z,16.06
2023-01-10T08:50:10.699Z,16.63
2023-01-10T08:51:09.150Z,17.27
2023-01-10T08:52:06.542Z,16.32
2023-01-10T08:53:04.214Z,16.63
2023-01-10T08:54:01.757Z,16.43
2023-01-10T08:54:59.078Z,16.69
2023-01-10T08:55:56.480Z,17.23
2023-01-10T08:56:53.966Z,18.34
2023-01-10T08:57:53.695Z,17.62
2023-01-10T08:58:51.062Z,17.41
2023-01-10T08:59:48.675Z,17.05
2023-01-10T09:00:46.127Z,16.70
2023-01-10T09:01:43.582Z,16.73
2023-01-10T09:02:41.216Z,15.78
2023-01-10T09:03:39.882Z,16.39
2023-01-10T09:04:37.196Z,16.10
2023-01-10T09:05:34.615Z,15.67
2023-01-10T09:06:32.042Z,14.51
2023-01-10T09:07:29.402Z,15.08
2023-01-10T09:08:26.738Z,15.61
2023-01-10T09:09:24.124Z,14.86
2023-01-10T09:10:21.687Z,15.05
2023-01-10T09:11:19.155Z,15.05
2023-01-10T09:12:34.957Z,15.05
2023-01-10T09:13:32.667Z,15.47
2023-01-10T09:14:30.018Z,14.81
2023-01-10T09:15:29.413Z,14.22
2023-01-10T09:16:26.892Z,16.07
2023-01-10T09:17:25.653Z,16.14
2023-01-10T09:18:23.490Z,15.77
2023-01-10T09:19:20.927Z,15.86
2023-01-10T09:20:18.360Z,16.21
2023-01-10T09:21:15.913Z,16.48
2023-01-10T09:22:13.374Z,17.75
2023-01-10T09:23:19.163Z,17.49
2023-01-10T09:24:16.523Z,16.87
2023-01-10T09:25:13.892Z,17.42
2023-01-10T09:26:11.324Z,17.69
2023-01-10T09:27:08.623Z,17.46
2023-01-10T09:28:06.198Z,16.09
2023-01-10T09:29:03.573Z,17.23
2023-01-10T09:30:00.999Z,16.48
2023-01-10T09:30:58.453Z,17.13
2023-01-10T09:31:55.840Z,17.23
2023-01-10T09:32:54.256Z,17.94
2023-01-10T09:33:51.559Z,17.14
2023-01-10T09:34:48.892Z,17.33
2023-01-10T09:35:46.358Z,17.13
2023-01-10T09:36:43.778Z,17.85
2023-01-10T09:37:41.086Z,17.67
2023-01-10T09:38:38.517Z,16.65
2023-01-10T09:39:35.827Z,16.71
2023-01-10T09:40:39.149Z,17.81
2023-01-10T09:42:00.107Z,17.03
2023-01-10T09:43:08.689Z,16.80
2023-01-10T09:44:20.344Z,17.44
2023-01-10T09:45:27.671Z,16.65
2023-01-10T09:46:39.890Z,16.32
2023-01-10T09:47:57.650Z,15.98
2023-01-10T09:49:07.413Z,16.12
2023-01-10T09:50:25.020Z,16.38
2023-01-10T09:51:32.476Z,16.21
2023-01-10T09:52:34.174Z,16.08
2023-01-10T09:53:34.595Z,17.71
2023-01-10T09:54:35.317Z,15.76
2023-01-10T09:55:36.188Z,16.56
2023-01-10T09:56:35.312Z,16.73
2023-01-10T09:57:32.699Z,16.11
2023-01-10T09:58:32.747Z,16.21
2023-01-10T09:59:37.727Z,14.51
2023-01-10T10:00:41.722Z,15.57
2023-01-10T10:01:39.176Z,15.20
2023-01-10T10:02:42.912Z,15.18
2023-01-10T10:03:46.409Z,14.08
2023-01-10T10:04:49.197Z,15.27
2023-01-10T10:05:46.556Z,14.74
2023-01-10T10:06:43.988Z,14.90
2023-01-10T10:07:52.034Z,15.20
2023-01-10T10:08:50.936Z,14.40
2023-01-10T10:09:48.341Z,14.61
2023-01-10T10:11:11.047Z,14.32
2023-01-10T10:12:08.383Z,14.36
2023-01-10T10:13:26.804Z,14.56
2023-01-10T10:14:36.719Z,14.39
2023-01-10T10:15:42.927Z,15.37
2023-01-10T10:16:55.354Z,15.20
2023-01-10T10:17:52.658Z,15.82
2023-01-10T10:19:17.332Z,16.18
2023-01-10T10:20:23.265Z,15.08
2023-01-10T10:21:23.362Z,15.79
2023-01-10T10:22:32.768Z,15.56
2023-01-10T10:23:30.167Z,15.10
2023-01-10T10:25:02.971Z,16.30
2023-01-10T10:26:27.879Z,16.33
2023-01-10T10:27:34.172Z,14.41
2023-01-10T10:28:41.193Z,15.11
2023-01-10T10:29:46.741Z,14.12
2023-01-10T10:30:44.178Z,14.64
2023-01-10T10:31:44.334Z,14.68
2023-01-10T10:33:07.643Z,14.46
2023-01-10T10:34:23.350Z,14.06
2023-01-10T10:35:20.656Z,14.01
2023-01-10T10:36:37.955Z,13.72
2023-01-10T10:37:44.896Z,14.29
2023-01-10T10:38:46.060Z,13.86
2023-01-10T10:39:47.503Z,14.92
2023-01-10T10:40:47.558Z,13.85
2023-01-10T10:41:48.244Z,13.11
2023-01-10T10:42:48.353Z,14.58
2023-01-10T10:43:47.793Z,14.39
2023-01-10T10:44:45.105Z,13.33
2023-01-10T10:45:46.152Z,12.95
2023-01-10T10:46:43.585Z,12.95
2023-01-10T10:47:45.800Z,12.95
2023-01-10T10:48:53.868Z,12.97
2023-01-10T10:49:57.331Z,13.48
2023-01-10T10:51:17.356Z,13.15
2023-01-10T10:52:22.308Z,13.34
2023-01-10T10:53:19.681Z,12.64
2023-01-10T10:54:17.198Z,13.24
2023-01-10T10:55:18.987Z,13.13
2023-01-10T10:56:19.922Z,12.88
2023-01-10T10:57:17.835Z,12.74
2023-01-10T10:58:15.393Z,13.71
2023-01-10T10:59:18.807Z,14.04
2023-01-10T11:00:18.065Z,13.78
2023-01-10T11:01:16.649Z,12.47
2023-01-10T11:02:21.247Z,12.79
2023-01-10T11:03:48.339Z,13.33
2023-01-10T11:04:46.271Z,12.83
2023-01-10T11:05:46.614Z,14.29
2023-01-10T11:06:49.099Z,14.29
2023-01-10T11:07:47.031Z,13.19
2023-01-10T11:08:47.133Z,14.39
2023-01-10T11:09:59.889Z,13.47
2023-01-10T11:10:58.821Z,14.36
2023-01-10T11:11:59.234Z,18.17
2023-01-10T11:12:58.949Z,19.32
2023-01-10T11:14:01.048Z,20.18
2023-01-10T11:14:59.937Z,20.26
2023-01-10T11:15:57.536Z,18.34
2023-01-10T11:16:54.992Z,15.76
2023-01-10T11:18:04.642Z,15.34
2023-01-10T11:19:20.304Z,18.54
2023-01-10T11:20:17.991Z,18.98
2023-01-10T11:21:19.655Z,17.98
2023-01-10T11:22:19.513Z,16.55
2023-01-10T11:23:24.611Z,18.53
2023-01-10T11:24:31.055Z,19.75
2023-01-10T11:25:28.574Z,17.57
2023-01-10T11:26:25.970Z,19.46
2023-01-10T11:27:26.371Z,17.64
2023-01-10T11:28:29.217Z,15.43
2023-01-10T11:29:35.503Z,15.39
2023-01-10T11:30:34.538Z,19.85
2023-01-10T11:31:32.890Z,19.10
2023-01-10T11:32:48.327Z,21.30
2023-01-10T11:33:48.171Z,24.09
2023-01-10T11:35:11.609Z,23.32
2023-01-10T11:36:12.990Z,20.95
2023-01-10T11:37:48.756Z,19.15
2023-01-10T11:38:58.959Z,16.45
2023-01-10T11:40:14.752Z,14.85
2023-01-10T11:41:34.398Z,15.87
2023-01-10T11:42:32.956Z,17.10
2023-01-10T11:43:35.408Z,16.93
2023-01-10T11:44:32.847Z,16.74
2023-01-10T11:45:32.206Z,17.79
2023-01-10T11:46:30.025Z,15.13
2023-01-10T11:47:29.805Z,13.61
2023-01-10T11:48:56.268Z,12.52
2023-01-10T11:49:44.825Z,9.66
2023-01-10T11:50:48.171Z,9.25
2023-01-10T11:51:58.858Z,10.78
2023-01-10T11:52:57.088Z,10.44
2023-01-10T11:54:00.348Z,8.87
2023-01-10T11:55:00.536Z,11.62
2023-01-10T11:55:58.382Z,16.83
2023-01-10T11:57:00.651Z,14.52
2023-01-10T11:58:07.218Z,10.19
2023-01-10T11:59:12.541Z,9.99
2023-01-10T12:00:11.016Z,9.61
2023-01-10T12:01:25.973Z,10.21
2023-01-10T12:02:26.748Z,8.65
2023-01-10T12:03:29.983Z,7.76
2023-01-10T12:04:33.893Z,7.78
2023-01-10T12:05:31.397Z,7.16
2023-01-10T12:06:29.711Z,6.89
2023-01-10T12:07:27.126Z,8.12
2023-01-10T12:08:26.571Z,9.57
2023-01-10T12:09:39.597Z,8.00
2023-01-10T12:10:37.030Z,5.71
2023-01-10T12:11:35.995Z,5.74
2023-01-10T12:12:34.935Z,5.75
2023-01-10T12:13:52.518Z,8.54
2023-01-10T12:14:50.521Z,10.63
2023-01-10T12:15:49.340Z,9.31
2023-01-10T12:16:49.272Z,7.63
2023-01-10T12:17:47.441Z,9.13
2023-01-10T12:18:45.506Z,8.27
2023-01-10T12:19:42.904Z,7.98
2023-01-10T12:20:52.815Z,7.61
2023-01-10T12:21:51.583Z,8.17
2023-01-10T12:22:52.563Z,16.18
2023-01-10T12:23:52.140Z,16.90
2023-01-10T12:24:52.234Z,18.33
2023-01-10T12:25:55.120Z,21.44
2023-01-10T12:26:55.461Z,14.32
2023-01-10T12:27:56.363Z,9.05
2023-01-10T12:28:58.756Z,10.21
2023-01-10T12:29:58.999Z,10.89
2023-01-10T12:31:01.252Z,6.87
2023-01-10T12:32:01.231Z,6.31
2023-01-10T12:33:01.574Z,14.39
2023-01-10T12:34:05.713Z,17.27
2023-01-10T12:35:07.670Z,16.16
2023-01-10T12:36:06.986Z,12.49
2023-01-10T12:37:16.386Z,7.61
2023-01-10T12:38:42.836Z,6.52
2023-01-10T12:39:46.272Z,8.77
2023-01-10T12:41:04.116Z,9.27
2023-01-10T12:42:19.967Z,7.55
2023-01-10T12:43:40.915Z,6.36
2023-01-10T12:44:43.196Z,5.32
2023-01-10T12:45:51.237Z,7.33
2023-01-10T12:47:13.717Z,6.51
2023-01-10T12:48:16.960Z,6.75
2023-01-10T12:49:20.554Z,7.18
2023-01-10T12:50:30.855Z,7.17
2023-01-10T12:51:29.877Z,6.30
2023-01-10T12:52:30.079Z,6.61
2023-01-10T12:53:40.903Z,5.09
2023-01-10T12:54:38.293Z,3.29
2023-01-10T12:55:44.481Z,2.84
2023-01-10T12:56:43.641Z,3.34
2023-01-10T12:57:43.505Z,2.93
2023-01-10T12:58:44.169Z,2.13
2023-01-10T12:59:44.859Z,2.49
2023-01-10T13:00:48.519Z,2.47
2023-01-10T13:01:55.694Z,2.16
2023-01-10T13:02:55.020Z,2.48